sensor_id;sensor_type;location;lat;lon;timestamp;pressure;altitude;pressure_sealevel;temperature;humidity
20077;BME280;12348;42.710;23.378;2023-05-20T00:01:51;95426.69;;;11.98;100.00
20077;BME280;12348;42.710;23.378;2023-05-20T00:04:18;95422.91;;;11.99;100.00
20077;BME280;12348;42.710;23.378;2023-05-20T00:06:44;95427.66;;;12.07;100.00
20077;BME280;12348;42.710;23.378;2023-05-20T00:09:11;95430.78;;;11.95;100.00
20077;BME280;12348;42.710;23.378;2023-05-20T00:11:40;95425.22;;;11.86;100.00
20077;BME280;12348;42.710;23.378;2023-05-20T00:14:06;95428.00;;;12.00;100.00
20077;BME280;12348;42.710;23.378;2023-05-20T00:16:33;95418.00;;;12.01;100.00
20077;BME280;12348;42.710;23.378;2023-05-20T00:19:03;95427.19;;;12.00;100.00
20077;BME280;12348;42.710;23.378;2023-05-20T00:21:30;95420.47;;;11.97;100.00
20077;BME280;12348;42.710;23.378;2023-05-20T00:23:58;95416.75;;;11.93;100.00
20077;BME280;12348;42.710;23.378;2023-05-20T00:26:25;95411.72;;;11.86;100.00
20077;BME280;12348;42.710;23.378;2023-05-20T00:28:53;95409.34;;;12.04;100.00
20077;BME280;12348;42.710;23.378;2023-05-20T00:31:20;95405.88;;;11.98;100.00
20077;BME280;12348;42.710;23.378;2023-05-20T00:33:47;95412.59;;;12.01;100.00
20077;BME280;12348;42.710;23.378;2023-05-20T00:36:13;95400.28;;;11.95;100.00
20077;BME280;12348;42.710;23.378;2023-05-20T00:38:40;95415.38;;;11.72;100.00
20077;BME280;12348;42.710;23.378;2023-05-20T00:41:07;95403.31;;;11.69;100.00
20077;BME280;12348;42.710;23.378;2023-05-20T00:43:35;95402.84;;;11.62;100.00
20077;BME280;12348;42.710;23.378;2023-05-20T00:46:03;95401.31;;;11.75;100.00
20077;BME280;12348;42.710;23.378;2023-05-20T00:48:36;95395.81;;;11.61;100.00
20077;BME280;12348;42.710;23.378;2023-05-20T00:51:05;95397.69;;;11.41;100.00
20077;BME280;12348;42.710;23.378;2023-05-20T00:53:33;95390.81;;;11.30;100.00
20077;BME280;12348;42.710;23.378;2023-05-20T00:56:00;95390.47;;;11.37;100.00
20077;BME280;12348;42.710;23.378;2023-05-20T00:58:27;95395.44;;;11.49;100.00
20077;BME280;12348;42.710;23.378;2023-05-20T01:00:55;95401.97;;;11.43;100.00
20077;BME280;12348;42.710;23.378;2023-05-20T01:03:24;95405.28;;;11.39;100.00
20077;BME280;12348;42.710;23.378;2023-05-20T01:05:54;95402.28;;;11.41;100.00
20077;BME280;12348;42.710;23.378;2023-05-20T01:08:22;95400.91;;;11.44;100.00
20077;BME280;12348;42.710;23.378;2023-05-20T01:10:57;95399.13;;;11.58;100.00
20077;BME280;12348;42.710;23.378;2023-05-20T01:13:29;95404.88;;;11.51;100.00
20077;BME280;12348;42.710;23.378;2023-05-20T01:15:59;95401.47;;;11.40;100.00
20077;BME280;12348;42.710;23.378;2023-05-20T01:18:29;95405.16;;;11.26;100.00
20077;BME280;12348;42.710;23.378;2023-05-20T01:20:57;95403.19;;;11.31;100.00
20077;BME280;12348;42.710;23.378;2023-05-20T01:23:32;95402.09;;;11.08;100.00
20077;BME280;12348;42.710;23.378;2023-05-20T01:25:59;95398.13;;;11.01;100.00
20077;BME280;12348;42.710;23.378;2023-05-20T01:28:27;95404.56;;;11.05;100.00
20077;BME280;12348;42.710;23.378;2023-05-20T01:30:57;95408.56;;;10.83;100.00
20077;BME280;12348;42.710;23.378;2023-05-20T01:33:27;95410.16;;;10.84;100.00
20077;BME280;12348;42.710;23.378;2023-05-20T01:35:55;95413.94;;;10.83;100.00
20077;BME280;12348;42.710;23.378;2023-05-20T01:38:24;95407.63;;;10.69;100.00
20077;BME280;12348;42.710;23.378;2023-05-20T01:40:53;95414.13;;;10.63;100.00
20077;BME280;12348;42.710;23.378;2023-05-20T01:43:20;95410.72;;;10.52;100.00
20077;BME280;12348;42.710;23.378;2023-05-20T01:45:48;95412.59;;;10.52;100.00
20077;BME280;12348;42.710;23.378;2023-05-20T01:48:14;95408.72;;;10.63;100.00
20077;BME280;12348;42.710;23.378;2023-05-20T01:50:42;95398.91;;;10.48;100.00
20077;BME280;12348;42.710;23.378;2023-05-20T01:53:09;95400.31;;;10.40;100.00
20077;BME280;12348;42.710;23.378;2023-05-20T01:55:35;95403.66;;;10.56;100.00
20077;BME280;12348;42.710;23.378;2023-05-20T01:58:04;95413.84;;;10.64;100.00
20077;BME280;12348;42.710;23.378;2023-05-20T02:00:31;95410.47;;;10.49;100.00
20077;BME280;12348;42.710;23.378;2023-05-20T02:02:58;95394.44;;;10.33;100.00
20077;BME280;12348;42.710;23.378;2023-05-20T02:05:25;95390.63;;;10.39;100.00
20077;BME280;12348;42.710;23.378;2023-05-20T02:07:52;95391.78;;;10.28;100.00
20077;BME280;12348;42.710;23.378;2023-05-20T02:10:19;95389.44;;;10.16;100.00
20077;BME280;12348;42.710;23.378;2023-05-20T02:12:46;95389.91;;;10.24;100.00
20077;BME280;12348;42.710;23.378;2023-05-20T02:15:16;95380.50;;;10.21;100.00
20077;BME280;12348;42.710;23.378;2023-05-20T02:17:43;95378.63;;;10.22;100.00
20077;BME280;12348;42.710;23.378;2023-05-20T02:20:10;95383.84;;;10.76;100.00
20077;BME280;12348;42.710;23.378;2023-05-20T02:22:38;95392.75;;;10.42;100.00
20077;BME280;12348;42.710;23.378;2023-05-20T02:25:06;95385.31;;;10.29;100.00
20077;BME280;12348;42.710;23.378;2023-05-20T02:27:33;95375.84;;;9.98;100.00
20077;BME280;12348;42.710;23.378;2023-05-20T02:30:00;95387.47;;;9.88;100.00
20077;BME280;12348;42.710;23.378;2023-05-20T02:32:28;95387.25;;;9.79;100.00
20077;BME280;12348;42.710;23.378;2023-05-20T02:34:55;95380.75;;;9.85;100.00
20077;BME280;12348;42.710;23.378;2023-05-20T02:37:22;95386.41;;;9.84;100.00
20077;BME280;12348;42.710;23.378;2023-05-20T02:39:49;95383.69;;;9.89;100.00
20077;BME280;12348;42.710;23.378;2023-05-20T02:42:16;95390.44;;;9.81;100.00
20077;BME280;12348;42.710;23.378;2023-05-20T02:44:42;95382.31;;;9.91;100.00
20077;BME280;12348;42.710;23.378;2023-05-20T02:47:09;95383.63;;;9.99;100.00
20077;BME280;12348;42.710;23.378;2023-05-20T02:49:38;95382.88;;;9.93;100.00
20077;BME280;12348;42.710;23.378;2023-05-20T02:52:05;95388.00;;;9.85;100.00
20077;BME280;12348;42.710;23.378;2023-05-20T02:54:34;95390.78;;;9.69;100.00
20077;BME280;12348;42.710;23.378;2023-05-20T02:57:01;95389.78;;;9.60;100.00
20077;BME280;12348;42.710;23.378;2023-05-20T02:59:28;95384.53;;;9.84;100.00
20077;BME280;12348;42.710;23.378;2023-05-20T03:01:55;95387.00;;;9.70;100.00
20077;BME280;12348;42.710;23.378;2023-05-20T03:04:21;95390.25;;;9.73;100.00
20077;BME280;12348;42.710;23.378;2023-05-20T03:06:52;95393.69;;;9.78;100.00
20077;BME280;12348;42.710;23.378;2023-05-20T03:09:22;95402.34;;;9.70;100.00
20077;BME280;12348;42.710;23.378;2023-05-20T03:11:49;95408.53;;;9.70;100.00
20077;BME280;12348;42.710;23.378;2023-05-20T03:14:16;95409.91;;;9.68;100.00
20077;BME280;12348;42.710;23.378;2023-05-20T03:16:42;95408.78;;;9.74;100.00
20077;BME280;12348;42.710;23.378;2023-05-20T03:19:09;95415.06;;;10.04;100.00
20077;BME280;12348;42.710;23.378;2023-05-20T03:21:36;95410.97;;;10.16;100.00
20077;BME280;12348;42.710;23.378;2023-05-20T03:24:05;95410.22;;;10.79;100.00
20077;BME280;12348;42.710;23.378;2023-05-20T03:26:32;95409.97;;;11.53;100.00
20077;BME280;12348;42.710;23.378;2023-05-20T03:29:02;95398.66;;;12.31;100.00
20077;BME280;12348;42.710;23.378;2023-05-20T03:31:28;95397.00;;;13.15;100.00
20077;BME280;12348;42.710;23.378;2023-05-20T03:33:55;95399.81;;;13.78;100.00
20077;BME280;12348;42.710;23.378;2023-05-20T03:36:23;95406.25;;;14.19;100.00
20077;BME280;12348;42.710;23.378;2023-05-20T03:38:49;95402.31;;;14.61;100.00
20077;BME280;12348;42.710;23.378;2023-05-20T03:41:18;95404.19;;;15.45;100.00
20077;BME280;12348;42.710;23.378;2023-05-20T03:43:45;95410.66;;;16.15;100.00
20077;BME280;12348;42.710;23.378;2023-05-20T03:46:13;95400.72;;;16.98;100.00
20077;BME280;12348;42.710;23.378;2023-05-20T03:48:40;95415.28;;;16.06;100.00
20077;BME280;12348;42.710;23.378;2023-05-20T03:51:07;95408.09;;;16.10;100.00
20077;BME280;12348;42.710;23.378;2023-05-20T03:53:34;95412.41;;;16.98;100.00
20077;BME280;12348;42.710;23.378;2023-05-20T03:56:01;95418.50;;;17.51;100.00
20077;BME280;12348;42.710;23.378;2023-05-20T03:58:29;95416.41;;;18.45;91.92
20077;BME280;12348;42.710;23.378;2023-05-20T04:00:56;95428.97;;;18.79;86.53
20077;BME280;12348;42.710;23.378;2023-05-20T04:03:23;95429.53;;;18.22;85.96
20077;BME280;12348;42.710;23.378;2023-05-20T04:05:50;95429.34;;;18.27;84.61
20077;BME280;12348;42.710;23.378;2023-05-20T04:08:17;95423.94;;;19.35;81.65
20077;BME280;12348;42.710;23.378;2023-05-20T04:10:46;95430.63;;;19.83;78.51
20077;BME280;12348;42.710;23.378;2023-05-20T04:13:13;95432.44;;;19.67;78.95
20077;BME280;12348;42.710;23.378;2023-05-20T04:15:42;95430.50;;;20.81;72.79
20077;BME280;12348;42.710;23.378;2023-05-20T04:18:09;95421.13;;;21.39;69.72
20077;BME280;12348;42.710;23.378;2023-05-20T04:20:35;95420.59;;;20.00;73.35
20077;BME280;12348;42.710;23.378;2023-05-20T04:23:02;95423.34;;;19.88;76.78
20077;BME280;12348;42.710;23.378;2023-05-20T04:25:29;95425.72;;;21.35;69.54
20077;BME280;12348;42.710;23.378;2023-05-20T04:27:56;95430.09;;;21.83;66.17
20077;BME280;12348;42.710;23.378;2023-05-20T04:30:24;95436.00;;;22.01;66.86
20077;BME280;12348;42.710;23.378;2023-05-20T04:32:53;95436.03;;;23.07;61.25
20077;BME280;12348;42.710;23.378;2023-05-20T04:35:20;95431.47;;;23.57;59.72
20077;BME280;12348;42.710;23.378;2023-05-20T04:37:50;95435.16;;;24.37;57.81
20077;BME280;12348;42.710;23.378;2023-05-20T04:40:18;95442.97;;;25.52;55.21
20077;BME280;12348;42.710;23.378;2023-05-20T04:42:45;95439.28;;;25.07;55.97
20077;BME280;12348;42.710;23.378;2023-05-20T04:45:12;95428.19;;;24.70;55.72
20077;BME280;12348;42.710;23.378;2023-05-20T04:47:39;95437.41;;;25.11;57.04
20077;BME280;12348;42.710;23.378;2023-05-20T04:50:09;95440.41;;;25.02;56.35
20077;BME280;12348;42.710;23.378;2023-05-20T04:52:36;95430.97;;;26.74;52.35
20077;BME280;12348;42.710;23.378;2023-05-20T04:55:04;95439.53;;;26.54;51.19
20077;BME280;12348;42.710;23.378;2023-05-20T04:57:31;95440.84;;;26.71;50.95
20077;BME280;12348;42.710;23.378;2023-05-20T04:59:58;95445.69;;;26.96;49.50
20077;BME280;12348;42.710;23.378;2023-05-20T05:02:26;95439.91;;;26.01;51.79
20077;BME280;12348;42.710;23.378;2023-05-20T05:04:53;95439.38;;;26.99;50.75
20077;BME280;12348;42.710;23.378;2023-05-20T05:07:21;95436.41;;;29.18;45.27
20077;BME280;12348;42.710;23.378;2023-05-20T05:09:48;95438.94;;;28.09;46.64
20077;BME280;12348;42.710;23.378;2023-05-20T05:12:15;95427.69;;;27.27;47.18
20077;BME280;12348;42.710;23.378;2023-05-20T05:14:42;95434.59;;;28.44;45.52
20077;BME280;12348;42.710;23.378;2023-05-20T05:17:09;95426.28;;;28.44;45.76
20077;BME280;12348;42.710;23.378;2023-05-20T05:19:36;95434.13;;;26.17;50.45
20077;BME280;12348;42.710;23.378;2023-05-20T05:22:03;95427.06;;;26.78;49.59
20077;BME280;12348;42.710;23.378;2023-05-20T05:24:32;95426.25;;;28.12;45.97
20077;BME280;12348;42.710;23.378;2023-05-20T05:26:59;95428.13;;;29.04;43.78
20077;BME280;12348;42.710;23.378;2023-05-20T05:29:26;95428.25;;;28.08;45.69
20077;BME280;12348;42.710;23.378;2023-05-20T05:31:53;95424.66;;;27.86;46.14
20077;BME280;12348;42.710;23.378;2023-05-20T05:34:20;95419.00;;;27.36;47.88
20077;BME280;12348;42.710;23.378;2023-05-20T05:36:47;95421.97;;;26.88;49.21
20077;BME280;12348;42.710;23.378;2023-05-20T05:39:14;95428.22;;;28.36;45.93
20077;BME280;12348;42.710;23.378;2023-05-20T05:41:42;95431.03;;;28.50;44.92
20077;BME280;12348;42.710;23.378;2023-05-20T05:44:09;95421.78;;;26.52;49.95
20077;BME280;12348;42.710;23.378;2023-05-20T05:46:36;95423.78;;;26.62;50.74
20077;BME280;12348;42.710;23.378;2023-05-20T05:49:03;95423.31;;;26.46;51.95
20077;BME280;12348;42.710;23.378;2023-05-20T05:51:30;95427.41;;;27.71;48.83
20077;BME280;12348;42.710;23.378;2023-05-20T05:53:56;95429.00;;;28.65;45.26
20077;BME280;12348;42.710;23.378;2023-05-20T05:56:23;95431.00;;;28.25;47.06
20077;BME280;12348;42.710;23.378;2023-05-20T05:58:51;95426.25;;;28.26;47.59
20077;BME280;12348;42.710;23.378;2023-05-20T06:01:18;95424.41;;;29.39;43.60
20077;BME280;12348;42.710;23.378;2023-05-20T06:03:46;95418.56;;;29.16;44.11
20077;BME280;12348;42.710;23.378;2023-05-20T06:06:12;95411.81;;;30.42;41.87
20077;BME280;12348;42.710;23.378;2023-05-20T06:08:39;95415.88;;;28.91;44.58
20077;BME280;12348;42.710;23.378;2023-05-20T06:11:06;95407.69;;;27.94;46.54
20077;BME280;12348;42.710;23.378;2023-05-20T06:13:33;95399.19;;;29.05;44.36
20077;BME280;12348;42.710;23.378;2023-05-20T06:16:01;95400.94;;;28.17;45.82
20077;BME280;12348;42.710;23.378;2023-05-20T06:18:28;95400.88;;;27.60;47.08
20077;BME280;12348;42.710;23.378;2023-05-20T06:20:55;95401.72;;;27.82;46.44
20077;BME280;12348;42.710;23.378;2023-05-20T06:23:22;95402.09;;;28.55;45.95
20077;BME280;12348;42.710;23.378;2023-05-20T06:25:49;95403.25;;;30.23;42.99
20077;BME280;12348;42.710;23.378;2023-05-20T06:28:16;95404.47;;;30.63;42.11
20077;BME280;12348;42.710;23.378;2023-05-20T06:30:43;95403.31;;;30.57;41.58
20077;BME280;12348;42.710;23.378;2023-05-20T06:33:11;95398.50;;;32.65;40.21
20077;BME280;12348;42.710;23.378;2023-05-20T06:35:38;95393.91;;;33.34;39.24
20077;BME280;12348;42.710;23.378;2023-05-20T06:38:05;95389.75;;;32.82;40.29
20077;BME280;12348;42.710;23.378;2023-05-20T06:40:32;95388.50;;;33.27;40.10
20077;BME280;12348;42.710;23.378;2023-05-20T06:42:59;95384.66;;;33.21;39.18
20077;BME280;12348;42.710;23.378;2023-05-20T06:45:26;95384.47;;;32.68;39.34
20077;BME280;12348;42.710;23.378;2023-05-20T06:47:52;95380.72;;;32.98;40.04
20077;BME280;12348;42.710;23.378;2023-05-20T06:50:20;95380.81;;;34.53;34.47
20077;BME280;12348;42.710;23.378;2023-05-20T06:52:47;95375.00;;;31.37;38.95
20077;BME280;12348;42.710;23.378;2023-05-20T06:55:14;95380.00;;;33.70;37.81
20077;BME280;12348;42.710;23.378;2023-05-20T06:57:41;95371.56;;;34.07;36.66
20077;BME280;12348;42.710;23.378;2023-05-20T07:00:10;95370.66;;;32.81;38.83
20077;BME280;12348;42.710;23.378;2023-05-20T07:02:38;95374.59;;;33.23;35.56
20077;BME280;12348;42.710;23.378;2023-05-20T07:05:05;95372.72;;;30.19;39.23
20077;BME280;12348;42.710;23.378;2023-05-20T07:07:33;95381.38;;;27.06;44.80
20077;BME280;12348;42.710;23.378;2023-05-20T07:10:00;95380.34;;;28.61;42.98
20077;BME280;12348;42.710;23.378;2023-05-20T07:12:29;95379.88;;;28.80;43.75
20077;BME280;12348;42.710;23.378;2023-05-20T07:14:56;95376.81;;;29.44;40.72
20077;BME280;12348;42.710;23.378;2023-05-20T07:17:23;95372.03;;;29.48;39.28
20077;BME280;12348;42.710;23.378;2023-05-20T07:19:50;95362.41;;;28.87;40.26
20077;BME280;12348;42.710;23.378;2023-05-20T07:22:20;95368.31;;;28.96;40.55
20077;BME280;12348;42.710;23.378;2023-05-20T07:24:48;95362.97;;;29.97;39.30
20077;BME280;12348;42.710;23.378;2023-05-20T07:27:15;95363.03;;;31.68;37.18
20077;BME280;12348;42.710;23.378;2023-05-20T07:29:41;95354.97;;;32.00;35.98
20077;BME280;12348;42.710;23.378;2023-05-20T07:32:08;95370.06;;;28.54;39.97
20077;BME280;12348;42.710;23.378;2023-05-20T07:34:35;95366.44;;;31.21;37.10
20077;BME280;12348;42.710;23.378;2023-05-20T07:37:02;95357.81;;;31.97;36.00
20077;BME280;12348;42.710;23.378;2023-05-20T07:39:30;95360.03;;;34.21;34.42
20077;BME280;12348;42.710;23.378;2023-05-20T07:41:58;95351.06;;;33.61;33.31
20077;BME280;12348;42.710;23.378;2023-05-20T07:44:25;95357.19;;;31.31;36.78
20077;BME280;12348;42.710;23.378;2023-05-20T07:46:52;95354.94;;;31.77;36.92
20077;BME280;12348;42.710;23.378;2023-05-20T07:49:20;95364.81;;;32.75;35.93
20077;BME280;12348;42.710;23.378;2023-05-20T07:51:47;95359.63;;;30.19;38.67
20077;BME280;12348;42.710;23.378;2023-05-20T07:54:14;95361.97;;;30.21;38.47
20077;BME280;12348;42.710;23.378;2023-05-20T07:56:41;95373.56;;;28.72;39.53
20077;BME280;12348;42.710;23.378;2023-05-20T07:59:09;95356.97;;;30.47;39.02
20077;BME280;12348;42.710;23.378;2023-05-20T08:01:36;95363.78;;;31.45;35.98
20077;BME280;12348;42.710;23.378;2023-05-20T08:04:04;95361.13;;;30.65;36.75
20077;BME280;12348;42.710;23.378;2023-05-20T08:06:31;95367.72;;;30.82;37.31
20077;BME280;12348;42.710;23.378;2023-05-20T08:08:59;95363.53;;;32.13;36.18
20077;BME280;12348;42.710;23.378;2023-05-20T08:11:26;95355.25;;;29.70;37.71
20077;BME280;12348;42.710;23.378;2023-05-20T08:13:53;95364.09;;;30.89;38.18
20077;BME280;12348;42.710;23.378;2023-05-20T08:16:21;95362.81;;;31.82;36.65
20077;BME280;12348;42.710;23.378;2023-05-20T08:18:48;95360.88;;;32.73;35.41
20077;BME280;12348;42.710;23.378;2023-05-20T08:21:15;95353.53;;;33.59;34.53
20077;BME280;12348;42.710;23.378;2023-05-20T08:23:42;95357.03;;;33.06;33.87
20077;BME280;12348;42.710;23.378;2023-05-20T08:26:09;95349.94;;;32.39;34.83
20077;BME280;12348;42.710;23.378;2023-05-20T08:28:35;95349.00;;;33.09;35.31
20077;BME280;12348;42.710;23.378;2023-05-20T08:31:02;95357.59;;;33.18;35.35
20077;BME280;12348;42.710;23.378;2023-05-20T08:33:31;95343.75;;;32.04;35.37
20077;BME280;12348;42.710;23.378;2023-05-20T08:35:58;95340.53;;;31.55;37.03
20077;BME280;12348;42.710;23.378;2023-05-20T08:38:25;95339.00;;;32.04;36.26
20077;BME280;12348;42.710;23.378;2023-05-20T08:40:55;95340.84;;;30.68;37.74
20077;BME280;12348;42.710;23.378;2023-05-20T08:43:22;95337.31;;;29.82;38.84
20077;BME280;12348;42.710;23.378;2023-05-20T08:45:49;95340.66;;;30.07;39.30
20077;BME280;12348;42.710;23.378;2023-05-20T08:48:17;95339.38;;;29.70;39.05
20077;BME280;12348;42.710;23.378;2023-05-20T08:50:49;95343.81;;;30.51;37.91
20077;BME280;12348;42.710;23.378;2023-05-20T08:53:16;95337.50;;;29.50;40.07
20077;BME280;12348;42.710;23.378;2023-05-20T08:55:45;95342.66;;;30.07;39.21
20077;BME280;12348;42.710;23.378;2023-05-20T08:58:14;95356.63;;;27.45;42.95
20077;BME280;12348;42.710;23.378;2023-05-20T09:00:43;95344.06;;;26.61;47.69
20077;BME280;12348;42.710;23.378;2023-05-20T09:03:10;95338.00;;;28.32;44.47
20077;BME280;12348;42.710;23.378;2023-05-20T09:05:37;95339.53;;;28.68;42.17
20077;BME280;12348;42.710;23.378;2023-05-20T09:08:06;95326.06;;;28.63;43.56
20077;BME280;12348;42.710;23.378;2023-05-20T09:10:33;95329.41;;;29.80;41.59
20077;BME280;12348;42.710;23.378;2023-05-20T09:13:00;95329.31;;;28.30;43.26
20077;BME280;12348;42.710;23.378;2023-05-20T09:15:28;95323.78;;;27.15;45.28
20077;BME280;12348;42.710;23.378;2023-05-20T09:17:58;95318.53;;;26.92;47.16
20077;BME280;12348;42.710;23.378;2023-05-20T09:20:26;95308.78;;;27.55;44.49
20077;BME280;12348;42.710;23.378;2023-05-20T09:22:57;95313.84;;;28.57;43.25
20077;BME280;12348;42.710;23.378;2023-05-20T09:25:25;95305.81;;;28.81;43.47
20077;BME280;12348;42.710;23.378;2023-05-20T09:27:52;95312.00;;;29.13;43.41
20077;BME280;12348;42.710;23.378;2023-05-20T09:30:19;95317.25;;;28.86;41.77
20077;BME280;12348;42.710;23.378;2023-05-20T09:32:51;95307.59;;;28.03;44.14
20077;BME280;12348;42.710;23.378;2023-05-20T09:35:18;95304.41;;;28.19;44.08
20077;BME280;12348;42.710;23.378;2023-05-20T09:37:46;95296.88;;;29.21;41.95
20077;BME280;12348;42.710;23.378;2023-05-20T09:40:14;95292.09;;;29.26;42.08
20077;BME280;12348;42.710;23.378;2023-05-20T09:42:51;95289.91;;;28.92;42.57
20077;BME280;12348;42.710;23.378;2023-05-20T09:45:19;95287.28;;;29.89;41.72
20077;BME280;12348;42.710;23.378;2023-05-20T09:47:46;95289.03;;;29.68;41.25
20077;BME280;12348;42.710;23.378;2023-05-20T09:50:13;95284.69;;;29.64;40.47
20077;BME280;12348;42.710;23.378;2023-05-20T09:52:42;95279.63;;;30.00;40.22
20077;BME280;12348;42.710;23.378;2023-05-20T09:55:09;95278.78;;;30.79;39.47
20077;BME280;12348;42.710;23.378;2023-05-20T09:57:37;95275.03;;;29.79;39.73
20077;BME280;12348;42.710;23.378;2023-05-20T10:00:06;95267.56;;;28.29;41.68
20077;BME280;12348;42.710;23.378;2023-05-20T10:02:36;95266.94;;;28.98;41.46
20077;BME280;12348;42.710;23.378;2023-05-20T10:05:05;95262.25;;;29.44;40.90
20077;BME280;12348;42.710;23.378;2023-05-20T10:07:55;95267.22;;;30.08;40.52
20077;BME280;12348;42.710;23.378;2023-05-20T10:10:32;95267.78;;;29.44;39.98
20077;BME280;12348;42.710;23.378;2023-05-20T10:13:10;95263.38;;;29.50;39.34
20077;BME280;12348;42.710;23.378;2023-05-20T10:15:49;95257.44;;;28.89;39.87
20077;BME280;12348;42.710;23.378;2023-05-20T10:18:27;95256.06;;;28.45;42.89
20077;BME280;12348;42.710;23.378;2023-05-20T10:20:57;95235.50;;;29.12;39.62
20077;BME280;12348;42.710;23.378;2023-05-20T10:23:27;95244.22;;;29.14;39.83
20077;BME280;12348;42.710;23.378;2023-05-20T10:25:55;95245.25;;;29.35;40.08
20077;BME280;12348;42.710;23.378;2023-05-20T10:28:30;95244.91;;;29.33;39.56
20077;BME280;12348;42.710;23.378;2023-05-20T10:30:59;95237.13;;;29.65;38.90
20077;BME280;12348;42.710;23.378;2023-05-20T10:33:26;95245.81;;;29.12;39.26
20077;BME280;12348;42.710;23.378;2023-05-20T10:35:56;95233.97;;;29.08;38.94
20077;BME280;12348;42.710;23.378;2023-05-20T10:38:23;95247.53;;;27.50;43.06
20077;BME280;12348;42.710;23.378;2023-05-20T10:40:50;95228.91;;;25.84;44.68
20077;BME280;12348;42.710;23.378;2023-05-20T10:43:25;95220.41;;;25.56;45.14
20077;BME280;12348;42.710;23.378;2023-05-20T10:45:54;95223.56;;;26.27;44.11
20077;BME280;12348;42.710;23.378;2023-05-20T10:48:25;95209.09;;;25.75;45.90
20077;BME280;12348;42.710;23.378;2023-05-20T10:50:56;95200.44;;;25.18;47.25
20077;BME280;12348;42.710;23.378;2023-05-20T10:53:25;95213.81;;;25.20;47.92
20077;BME280;12348;42.710;23.378;2023-05-20T10:55:53;95206.69;;;25.67;46.55
20077;BME280;12348;42.710;23.378;2023-05-20T10:58:21;95200.44;;;25.73;49.22
20077;BME280;12348;42.710;23.378;2023-05-20T11:00:51;95206.72;;;25.74;47.97
20077;BME280;12348;42.710;23.378;2023-05-20T11:03:20;95193.41;;;25.86;45.09
20077;BME280;12348;42.710;23.378;2023-05-20T11:05:49;95193.16;;;25.44;46.13
20077;BME280;12348;42.710;23.378;2023-05-20T11:08:16;95184.19;;;26.41;47.21
20077;BME280;12348;42.710;23.378;2023-05-20T11:10:43;95192.81;;;26.25;47.09
20077;BME280;12348;42.710;23.378;2023-05-20T11:13:12;95193.09;;;25.36;49.00
20077;BME280;12348;42.710;23.378;2023-05-20T11:15:39;95192.84;;;25.08;47.50
20077;BME280;12348;42.710;23.378;2023-05-20T11:18:10;95190.81;;;25.01;49.09
20077;BME280;12348;42.710;23.378;2023-05-20T11:20:38;95177.88;;;24.64;50.13
20077;BME280;12348;42.710;23.378;2023-05-20T11:23:10;95183.91;;;24.77;50.69
20077;BME280;12348;42.710;23.378;2023-05-20T11:25:37;95161.44;;;24.34;51.77
20077;BME280;12348;42.710;23.378;2023-05-20T11:28:08;95179.50;;;24.32;52.00
20077;BME280;12348;42.710;23.378;2023-05-20T11:30:35;95171.00;;;24.44;51.22
20077;BME280;12348;42.710;23.378;2023-05-20T11:33:03;95177.41;;;24.22;54.51
20077;BME280;12348;42.710;23.378;2023-05-20T11:35:31;95176.72;;;23.94;54.30
20077;BME280;12348;42.710;23.378;2023-05-20T11:38:01;95157.69;;;23.82;55.28
20077;BME280;12348;42.710;23.378;2023-05-20T11:40:31;95155.72;;;23.53;54.42
20077;BME280;12348;42.710;23.378;2023-05-20T11:43:00;95155.28;;;23.77;55.77
20077;BME280;12348;42.710;23.378;2023-05-20T11:45:38;95164.78;;;23.83;53.78
20077;BME280;12348;42.710;23.378;2023-05-20T11:48:06;95157.59;;;24.05;53.11
20077;BME280;12348;42.710;23.378;2023-05-20T11:50:34;95155.16;;;24.37;53.91
20077;BME280;12348;42.710;23.378;2023-05-20T11:53:04;95138.81;;;24.52;53.86
20077;BME280;12348;42.710;23.378;2023-05-20T11:55:33;95159.38;;;24.61;53.65
20077;BME280;12348;42.710;23.378;2023-05-20T11:58:00;95150.41;;;24.34;54.88
20077;BME280;12348;42.710;23.378;2023-05-20T12:00:29;95151.94;;;24.28;53.97
20077;BME280;12348;42.710;23.378;2023-05-20T12:02:56;95157.84;;;24.67;53.70
20077;BME280;12348;42.710;23.378;2023-05-20T12:05:22;95153.34;;;24.49;53.84
20077;BME280;12348;42.710;23.378;2023-05-20T12:07:49;95123.66;;;23.64;53.78
20077;BME280;12348;42.710;23.378;2023-05-20T12:10:16;95144.69;;;23.79;56.90
20077;BME280;12348;42.710;23.378;2023-05-20T12:12:45;95142.53;;;23.95;56.82
20077;BME280;12348;42.710;23.378;2023-05-20T12:15:14;95130.56;;;24.14;55.80
20077;BME280;12348;42.710;23.378;2023-05-20T12:17:46;95145.34;;;23.69;55.52
20077;BME280;12348;42.710;23.378;2023-05-20T12:20:15;95151.03;;;23.27;58.53
20077;BME280;12348;42.710;23.378;2023-05-20T12:22:42;95138.84;;;23.54;56.26
20077;BME280;12348;42.710;23.378;2023-05-20T12:25:11;95139.03;;;23.12;54.73
20077;BME280;12348;42.710;23.378;2023-05-20T12:27:39;95179.00;;;22.01;56.11
20077;BME280;12348;42.710;23.378;2023-05-20T12:30:09;95161.00;;;22.43;55.91
20077;BME280;12348;42.710;23.378;2023-05-20T12:32:36;95173.69;;;22.51;59.05
20077;BME280;12348;42.710;23.378;2023-05-20T12:35:04;95170.94;;;21.89;63.49
20077;BME280;12348;42.710;23.378;2023-05-20T12:37:31;95163.59;;;20.88;60.67
20077;BME280;12348;42.710;23.378;2023-05-20T12:39:58;95159.94;;;20.83;58.79
20077;BME280;12348;42.710;23.378;2023-05-20T12:42:25;95163.47;;;21.00;57.72
20077;BME280;12348;42.710;23.378;2023-05-20T12:44:51;95184.75;;;20.91;59.23
20077;BME280;12348;42.710;23.378;2023-05-20T12:47:20;95168.81;;;20.33;61.46
20077;BME280;12348;42.710;23.378;2023-05-20T12:49:47;95165.91;;;20.42;61.53
20077;BME280;12348;42.710;23.378;2023-05-20T12:52:13;95199.88;;;19.97;61.52